sensor_id;sensor_type;location;lat;lon;timestamp;P1;durP1;ratioP1;P2;durP2;ratioP2
35488;SDS011;21602;55.670;37.578;2023-02-01T00:02:02;14.55;;;8.13;;
35488;SDS011;21602;55.670;37.578;2023-02-01T00:04:28;16.50;;;9.02;;
35488;SDS011;21602;55.670;37.578;2023-02-01T00:06:56;15.90;;;8.02;;
35488;SDS011;21602;55.670;37.578;2023-02-01T00:09:22;12.07;;;7.18;;
35488;SDS011;21602;55.670;37.578;2023-02-01T00:11:50;15.32;;;8.27;;
35488;SDS011;21602;55.670;37.578;2023-02-01T00:14:16;13.27;;;7.95;;
35488;SDS011;21602;55.670;37.578;2023-02-01T00:16:42;10.93;;;7.80;;
35488;SDS011;21602;55.670;37.578;2023-02-01T00:19:12;15.75;;;8.75;;
35488;SDS011;21602;55.670;37.578;2023-02-01T00:21:39;15.52;;;8.65;;
35488;SDS011;21602;55.670;37.578;2023-02-01T00:24:06;16.85;;;8.32;;
35488;SDS011;21602;55.670;37.578;2023-02-01T00:26:40;14.32;;;7.85;;
35488;SDS011;21602;55.670;37.578;2023-02-01T00:29:14;11.88;;;7.80;;
35488;SDS011;21602;55.670;37.578;2023-02-01T00:31:42;12.73;;;7.63;;
35488;SDS011;21602;55.670;37.578;2023-02-01T00:34:10;13.38;;;6.63;;
35488;SDS011;21602;55.670;37.578;2023-02-01T00:36:38;14.07;;;8.45;;
35488;SDS011;21602;55.670;37.578;2023-02-01T00:39:04;16.77;;;8.27;;
35488;SDS011;21602;55.670;37.578;2023-02-01T00:41:29;14.02;;;8.20;;
35488;SDS011;21602;55.670;37.578;2023-02-01T00:43:56;12.45;;;7.55;;
35488;SDS011;21602;55.670;37.578;2023-02-01T00:46:22;16.00;;;7.57;;
35488;SDS011;21602;55.670;37.578;2023-02-01T00:48:47;11.65;;;7.20;;
35488;SDS011;21602;55.670;37.578;2023-02-01T00:51:15;13.40;;;7.97;;
35488;SDS011;21602;55.670;37.578;2023-02-01T00:53:42;13.18;;;7.63;;
35488;SDS011;21602;55.670;37.578;2023-02-01T00:56:08;14.73;;;8.07;;
35488;SDS011;21602;55.670;37.578;2023-02-01T00:58:35;13.40;;;8.15;;
35488;SDS011;21602;55.670;37.578;2023-02-01T01:01:02;13.32;;;8.35;;
35488;SDS011;21602;55.670;37.578;2023-02-01T01:03:41;13.93;;;7.65;;
35488;SDS011;21602;55.670;37.578;2023-02-01T01:06:10;13.30;;;7.97;;
35488;SDS011;21602;55.670;37.578;2023-02-01T01:08:39;12.32;;;7.28;;
35488;SDS011;21602;55.670;37.578;2023-02-01T01:11:10;13.63;;;7.15;;
35488;SDS011;21602;55.670;37.578;2023-02-01T01:13:38;13.25;;;7.82;;
35488;SDS011;21602;55.670;37.578;2023-02-01T01:16:06;14.40;;;7.43;;
35488;SDS011;21602;55.670;37.578;2023-02-01T01:18:33;12.00;;;7.13;;
35488;SDS011;21602;55.670;37.578;2023-02-01T01:21:01;13.53;;;7.67;;
35488;SDS011;21602;55.670;37.578;2023-02-01T01:23:29;13.13;;;6.90;;
35488;SDS011;21602;55.670;37.578;2023-02-01T01:25:55;11.88;;;7.47;;
35488;SDS011;21602;55.670;37.578;2023-02-01T01:28:21;12.55;;;7.65;;
35488;SDS011;21602;55.670;37.578;2023-02-01T01:30:47;12.93;;;7.38;;
35488;SDS011;21602;55.670;37.578;2023-02-01T01:33:12;12.95;;;7.38;;
35488;SDS011;21602;55.670;37.578;2023-02-01T01:35:38;12.75;;;7.40;;
35488;SDS011;21602;55.670;37.578;2023-02-01T01:38:04;11.82;;;7.43;;
35488;SDS011;21602;55.670;37.578;2023-02-01T01:40:30;12.38;;;6.75;;
35488;SDS011;21602;55.670;37.578;2023-02-01T01:42:57;11.73;;;7.18;;
35488;SDS011;21602;55.670;37.578;2023-02-01T01:45:31;15.00;;;8.13;;
35488;SDS011;21602;55.670;37.578;2023-02-01T01:48:02;13.52;;;7.32;;
35488;SDS011;21602;55.670;37.578;2023-02-01T01:50:39;12.18;;;7.28;;
35488;SDS011;21602;55.670;37.578;2023-02-01T01:53:11;13.50;;;7.53;;
35488;SDS011;21602;55.670;37.578;2023-02-01T01:55:41;13.95;;;8.27;;
35488;SDS011;21602;55.670;37.578;2023-02-01T01:58:11;12.88;;;7.47;;
35488;SDS011;21602;55.670;37.578;2023-02-01T02:00:40;12.80;;;7.45;;
35488;SDS011;21602;55.670;37.578;2023-02-01T02:03:18;14.65;;;7.93;;
35488;SDS011;21602;55.670;37.578;2023-02-01T02:05:44;13.65;;;8.35;;
35488;SDS011;21602;55.670;37.578;2023-02-01T02:08:14;12.38;;;7.55;;
35488;SDS011;21602;55.670;37.578;2023-02-01T02:10:40;14.07;;;7.55;;
35488;SDS011;21602;55.670;37.578;2023-02-01T02:13:25;14.48;;;7.78;;
35488;SDS011;21602;55.670;37.578;2023-02-01T02:27:24;13.23;;;7.70;;
35488;SDS011;21602;55.670;37.578;2023-02-01T02:33:15;16.17;;;8.32;;
35488;SDS011;21602;55.670;37.578;2023-02-01T02:36:06;13.50;;;7.78;;
35488;SDS011;21602;55.670;37.578;2023-02-01T02:41:19;13.93;;;8.07;;
35488;SDS011;21602;55.670;37.578;2023-02-01T02:44:19;14.68;;;8.18;;
35488;SDS011;21602;55.670;37.578;2023-02-01T02:47:13;12.98;;;7.60;;
35488;SDS011;21602;55.670;37.578;2023-02-01T02:52:57;14.95;;;8.55;;
35488;SDS011;21602;55.670;37.578;2023-02-01T02:55:56;15.07;;;8.52;;
35488;SDS011;21602;55.670;37.578;2023-02-01T02:58:43;11.63;;;7.05;;
35488;SDS011;21602;55.670;37.578;2023-02-01T03:01:30;14.70;;;8.47;;
35488;SDS011;21602;55.670;37.578;2023-02-01T03:04:15;15.32;;;8.02;;
35488;SDS011;21602;55.670;37.578;2023-02-01T03:06:46;15.50;;;8.02;;
35488;SDS011;21602;55.670;37.578;2023-02-01T03:09:46;14.13;;;8.05;;
35488;SDS011;21602;55.670;37.578;2023-02-01T03:12:09;16.95;;;8.45;;
35488;SDS011;21602;55.670;37.578;2023-02-01T03:15:00;18.42;;;8.77;;
35488;SDS011;21602;55.670;37.578;2023-02-01T03:17:34;15.48;;;8.23;;
35488;SDS011;21602;55.670;37.578;2023-02-01T03:20:06;15.57;;;9.02;;
35488;SDS011;21602;55.670;37.578;2023-02-01T03:22:36;13.77;;;8.52;;
35488;SDS011;21602;55.670;37.578;2023-02-01T03:25:05;18.80;;;10.05;;
35488;SDS011;21602;55.670;37.578;2023-02-01T03:27:41;14.85;;;8.73;;
35488;SDS011;21602;55.670;37.578;2023-02-01T03:32:50;16.80;;;9.05;;
35488;SDS011;21602;55.670;37.578;2023-02-01T03:38:50;13.90;;;8.30;;
35488;SDS011;21602;55.670;37.578;2023-02-01T03:41:33;14.57;;;9.02;;
35488;SDS011;21602;55.670;37.578;2023-02-01T03:44:09;15.20;;;8.77;;
35488;SDS011;21602;55.670;37.578;2023-02-01T03:46:50;15.77;;;9.32;;
35488;SDS011;21602;55.670;37.578;2023-02-01T03:49:25;15.88;;;9.40;;
35488;SDS011;21602;55.670;37.578;2023-02-01T03:51:54;14.32;;;8.35;;
35488;SDS011;21602;55.670;37.578;2023-02-01T03:54:22;14.27;;;8.63;;
35488;SDS011;21602;55.670;37.578;2023-02-01T03:56:49;15.18;;;8.75;;
35488;SDS011;21602;55.670;37.578;2023-02-01T03:59:17;16.73;;;9.77;;
35488;SDS011;21602;55.670;37.578;2023-02-01T04:01:42;15.80;;;8.93;;
35488;SDS011;21602;55.670;37.578;2023-02-01T04:04:09;17.90;;;10.65;;
35488;SDS011;21602;55.670;37.578;2023-02-01T04:06:37;17.50;;;9.73;;
35488;SDS011;21602;55.670;37.578;2023-02-01T04:09:04;18.65;;;10.60;;
35488;SDS011;21602;55.670;37.578;2023-02-01T04:11:30;19.83;;;10.00;;
35488;SDS011;21602;55.670;37.578;2023-02-01T04:13:55;18.88;;;9.82;;
35488;SDS011;21602;55.670;37.578;2023-02-01T04:16:21;15.95;;;9.13;;
35488;SDS011;21602;55.670;37.578;2023-02-01T04:18:47;18.23;;;10.63;;
35488;SDS011;21602;55.670;37.578;2023-02-01T04:21:13;19.52;;;9.88;;
35488;SDS011;21602;55.670;37.578;2023-02-01T04:23:39;20.63;;;10.70;;
35488;SDS011;21602;55.670;37.578;2023-02-01T04:26:05;19.33;;;10.20;;
35488;SDS011;21602;55.670;37.578;2023-02-01T04:28:32;19.58;;;10.13;;
35488;SDS011;21602;55.670;37.578;2023-02-01T04:30:57;20.50;;;9.77;;
35488;SDS011;21602;55.670;37.578;2023-02-01T04:33:27;19.65;;;10.35;;
35488;SDS011;21602;55.670;37.578;2023-02-01T04:35:53;17.90;;;10.20;;
35488;SDS011;21602;55.670;37.578;2023-02-01T04:38:19;16.27;;;10.35;;
35488;SDS011;21602;55.670;37.578;2023-02-01T04:40:46;19.77;;;11.82;;
35488;SDS011;21602;55.670;37.578;2023-02-01T04:43:13;22.17;;;10.63;;
35488;SDS011;21602;55.670;37.578;2023-02-01T04:45:39;18.02;;;10.73;;
35488;SDS011;21602;55.670;37.578;2023-02-01T04:48:04;22.38;;;10.65;;
35488;SDS011;21602;55.670;37.578;2023-02-01T04:50:30;20.40;;;10.30;;
35488;SDS011;21602;55.670;37.578;2023-02-01T04:52:57;17.90;;;9.68;;
35488;SDS011;21602;55.670;37.578;2023-02-01T04:55:23;19.65;;;10.77;;
35488;SDS011;21602;55.670;37.578;2023-02-01T04:57:49;15.00;;;9.20;;
35488;SDS011;21602;55.670;37.578;2023-02-01T05:00:15;14.57;;;9.32;;
35488;SDS011;21602;55.670;37.578;2023-02-01T05:02:41;19.98;;;10.05;;
35488;SDS011;21602;55.670;37.578;2023-02-01T05:05:07;18.83;;;9.43;;
35488;SDS011;21602;55.670;37.578;2023-02-01T05:07:33;21.70;;;10.32;;
35488;SDS011;21602;55.670;37.578;2023-02-01T05:09:58;18.10;;;11.00;;
35488;SDS011;21602;55.670;37.578;2023-02-01T05:12:24;19.05;;;10.20;;
35488;SDS011;21602;55.670;37.578;2023-02-01T05:15:12;22.00;;;9.90;;
35488;SDS011;21602;55.670;37.578;2023-02-01T05:17:37;19.83;;;11.07;;
35488;SDS011;21602;55.670;37.578;2023-02-01T05:20:05;22.08;;;12.00;;
35488;SDS011;21602;55.670;37.578;2023-02-01T05:22:32;22.60;;;11.93;;
35488;SDS011;21602;55.670;37.578;2023-02-01T05:24:58;19.75;;;10.98;;
35488;SDS011;21602;55.670;37.578;2023-02-01T05:27:23;19.50;;;11.20;;
35488;SDS011;21602;55.670;37.578;2023-02-01T05:29:49;22.65;;;10.85;;
35488;SDS011;21602;55.670;37.578;2023-02-01T05:32:15;23.02;;;11.57;;
35488;SDS011;21602;55.670;37.578;2023-02-01T05:34:40;19.30;;;10.73;;
35488;SDS011;21602;55.670;37.578;2023-02-01T05:37:06;19.90;;;10.23;;
35488;SDS011;21602;55.670;37.578;2023-02-01T05:39:32;20.48;;;9.88;;
35488;SDS011;21602;55.670;37.578;2023-02-01T05:41:58;21.70;;;11.68;;
35488;SDS011;21602;55.670;37.578;2023-02-01T05:44:24;24.30;;;12.48;;
35488;SDS011;21602;55.670;37.578;2023-02-01T05:46:50;26.60;;;12.02;;
35488;SDS011;21602;55.670;37.578;2023-02-01T05:49:17;19.20;;;11.20;;
35488;SDS011;21602;55.670;37.578;2023-02-01T05:51:43;20.83;;;11.43;;
35488;SDS011;21602;55.670;37.578;2023-02-01T05:54:09;36.88;;;12.18;;
35488;SDS011;21602;55.670;37.578;2023-02-01T05:56:35;18.25;;;9.90;;
35488;SDS011;21602;55.670;37.578;2023-02-01T05:59:01;22.00;;;11.57;;
35488;SDS011;21602;55.670;37.578;2023-02-01T06:01:28;24.02;;;12.02;;
35488;SDS011;21602;55.670;37.578;2023-02-01T06:03:53;26.42;;;13.27;;
35488;SDS011;21602;55.670;37.578;2023-02-01T06:06:20;21.77;;;12.18;;
35488;SDS011;21602;55.670;37.578;2023-02-01T06:08:46;21.40;;;11.25;;
35488;SDS011;21602;55.670;37.578;2023-02-01T06:11:11;25.30;;;12.13;;
35488;SDS011;21602;55.670;37.578;2023-02-01T06:13:38;24.70;;;12.52;;
35488;SDS011;21602;55.670;37.578;2023-02-01T06:16:04;25.65;;;12.35;;
35488;SDS011;21602;55.670;37.578;2023-02-01T06:18:33;23.95;;;12.23;;
35488;SDS011;21602;55.670;37.578;2023-02-01T06:21:00;24.37;;;11.53;;
35488;SDS011;21602;55.670;37.578;2023-02-01T06:23:26;22.65;;;12.27;;
35488;SDS011;21602;55.670;37.578;2023-02-01T06:26:00;20.57;;;10.33;;
35488;SDS011;21602;55.670;37.578;2023-02-01T06:28:31;22.90;;;12.45;;
35488;SDS011;21602;55.670;37.578;2023-02-01T06:30:57;27.27;;;12.10;;
35488;SDS011;21602;55.670;37.578;2023-02-01T06:33:27;24.33;;;11.90;;
35488;SDS011;21602;55.670;37.578;2023-02-01T06:35:57;25.10;;;13.00;;
35488;SDS011;21602;55.670;37.578;2023-02-01T06:38:24;23.60;;;11.80;;
35488;SDS011;21602;55.670;37.578;2023-02-01T06:40:52;23.63;;;11.63;;
35488;SDS011;21602;55.670;37.578;2023-02-01T06:43:19;22.25;;;11.75;;
35488;SDS011;21602;55.670;37.578;2023-02-01T06:45:45;24.42;;;12.23;;
35488;SDS011;21602;55.670;37.578;2023-02-01T06:48:11;25.02;;;12.30;;
35488;SDS011;21602;55.670;37.578;2023-02-01T06:50:37;25.90;;;13.05;;
35488;SDS011;21602;55.670;37.578;2023-02-01T06:53:02;24.13;;;12.02;;
35488;SDS011;21602;55.670;37.578;2023-02-01T06:55:28;21.60;;;12.45;;
35488;SDS011;21602;55.670;37.578;2023-02-01T06:57:54;23.90;;;12.95;;
35488;SDS011;21602;55.670;37.578;2023-02-01T07:00:21;23.77;;;11.52;;
35488;SDS011;21602;55.670;37.578;2023-02-01T07:02:48;29.35;;;12.23;;
35488;SDS011;21602;55.670;37.578;2023-02-01T07:05:16;24.55;;;12.43;;
35488;SDS011;21602;55.670;37.578;2023-02-01T07:07:42;26.48;;;12.05;;
35488;SDS011;21602;55.670;37.578;2023-02-01T07:10:09;23.98;;;11.77;;
35488;SDS011;21602;55.670;37.578;2023-02-01T07:12:35;24.67;;;12.43;;
35488;SDS011;21602;55.670;37.578;2023-02-01T07:15:01;26.00;;;12.02;;
35488;SDS011;21602;55.670;37.578;2023-02-01T07:19:55;26.73;;;11.77;;
35488;SDS011;21602;55.670;37.578;2023-02-01T07:22:21;23.30;;;11.75;;
35488;SDS011;21602;55.670;37.578;2023-02-01T07:24:48;20.70;;;11.90;;
35488;SDS011;21602;55.670;37.578;2023-02-01T07:27:13;20.65;;;11.88;;
35488;SDS011;21602;55.670;37.578;2023-02-01T07:29:39;22.45;;;12.30;;
35488;SDS011;21602;55.670;37.578;2023-02-01T07:32:06;25.67;;;12.52;;
35488;SDS011;21602;55.670;37.578;2023-02-01T07:34:32;22.63;;;10.85;;
35488;SDS011;21602;55.670;37.578;2023-02-01T07:36:59;25.38;;;11.32;;
35488;SDS011;21602;55.670;37.578;2023-02-01T07:39:25;24.98;;;12.43;;
35488;SDS011;21602;55.670;37.578;2023-02-01T07:41:53;24.63;;;11.50;;
35488;SDS011;21602;55.670;37.578;2023-02-01T07:44:19;21.92;;;11.00;;
35488;SDS011;21602;55.670;37.578;2023-02-01T07:46:49;22.35;;;12.05;;
35488;SDS011;21602;55.670;37.578;2023-02-01T07:49:15;21.95;;;11.90;;
35488;SDS011;21602;55.670;37.578;2023-02-01T07:51:42;22.75;;;11.88;;
35488;SDS011;21602;55.670;37.578;2023-02-01T07:54:09;20.00;;;11.73;;
35488;SDS011;21602;55.670;37.578;2023-02-01T07:56:35;22.85;;;12.30;;
35488;SDS011;21602;55.670;37.578;2023-02-01T07:59:00;21.70;;;11.93;;
35488;SDS011;21602;55.670;37.578;2023-02-01T08:01:28;21.90;;;11.27;;
35488;SDS011;21602;55.670;37.578;2023-02-01T08:03:57;27.75;;;12.82;;
35488;SDS011;21602;55.670;37.578;2023-02-01T08:06:24;25.67;;;11.95;;
35488;SDS011;21602;55.670;37.578;2023-02-01T08:08:52;24.60;;;13.15;;
35488;SDS011;21602;55.670;37.578;2023-02-01T08:11:18;20.90;;;10.85;;
35488;SDS011;21602;55.670;37.578;2023-02-01T08:13:47;21.10;;;11.23;;
35488;SDS011;21602;55.670;37.578;2023-02-01T08:16:17;24.45;;;11.82;;
35488;SDS011;21602;55.670;37.578;2023-02-01T08:18:45;25.30;;;12.77;;
35488;SDS011;21602;55.670;37.578;2023-02-01T08:21:16;21.60;;;11.88;;
35488;SDS011;21602;55.670;37.578;2023-02-01T08:23:45;22.00;;;12.13;;
35488;SDS011;21602;55.670;37.578;2023-02-01T08:28:42;22.90;;;11.88;;
35488;SDS011;21602;55.670;37.578;2023-02-01T08:31:12;21.42;;;11.68;;
35488;SDS011;21602;55.670;37.578;2023-02-01T08:33:40;19.88;;;11.25;;
35488;SDS011;21602;55.670;37.578;2023-02-01T08:36:07;19.92;;;11.05;;
35488;SDS011;21602;55.670;37.578;2023-02-01T08:38:35;20.90;;;10.63;;
35488;SDS011;21602;55.670;37.578;2023-02-01T08:41:22;22.00;;;11.63;;
35488;SDS011;21602;55.670;37.578;2023-02-01T08:43:49;19.20;;;10.18;;
35488;SDS011;21602;55.670;37.578;2023-02-01T08:46:16;19.15;;;9.77;;
35488;SDS011;21602;55.670;37.578;2023-02-01T08:48:42;17.83;;;11.13;;
35488;SDS011;21602;55.670;37.578;2023-02-01T08:51:11;18.75;;;9.82;;
35488;SDS011;21602;55.670;37.578;2023-02-01T08:53:38;17.70;;;9.63;;
35488;SDS011;21602;55.670;37.578;2023-02-01T08:56:08;17.70;;;10.05;;
35488;SDS011;21602;55.670;37.578;2023-02-01T08:58:36;15.55;;;9.45;;
35488;SDS011;21602;55.670;37.578;2023-02-01T09:01:06;17.73;;;9.80;;
35488;SDS011;21602;55.670;37.578;2023-02-01T09:03:39;20.15;;;11.48;;
35488;SDS011;21602;55.670;37.578;2023-02-01T09:06:06;21.10;;;10.55;;
35488;SDS011;21602;55.670;37.578;2023-02-01T09:08:34;20.17;;;11.48;;
35488;SDS011;21602;55.670;37.578;2023-02-01T09:11:01;17.27;;;10.50;;
35488;SDS011;21602;55.670;37.578;2023-02-01T09:15:55;19.15;;;10.82;;
35488;SDS011;21602;55.670;37.578;2023-02-01T09:18:21;23.02;;;12.82;;
35488;SDS011;21602;55.670;37.578;2023-02-01T09:20:47;23.13;;;12.35;;
35488;SDS011;21602;55.670;37.578;2023-02-01T09:23:13;23.05;;;12.65;;
35488;SDS011;21602;55.670;37.578;2023-02-01T09:25:39;28.63;;;13.00;;
35488;SDS011;21602;55.670;37.578;2023-02-01T09:28:05;26.02;;;13.75;;
35488;SDS011;21602;55.670;37.578;2023-02-01T09:30:31;25.50;;;14.13;;
35488;SDS011;21602;55.670;37.578;2023-02-01T09:32:58;26.20;;;14.25;;
35488;SDS011;21602;55.670;37.578;2023-02-01T09:35:24;26.75;;;14.20;;
35488;SDS011;21602;55.670;37.578;2023-02-01T09:37:52;26.60;;;13.63;;
35488;SDS011;21602;55.670;37.578;2023-02-01T09:40:18;27.13;;;16.30;;
35488;SDS011;21602;55.670;37.578;2023-02-01T09:48:11;28.92;;;15.10;;
35488;SDS011;21602;55.670;37.578;2023-02-01T09:50:52;29.88;;;14.77;;
35488;SDS011;21602;55.670;37.578;2023-02-01T09:53:34;32.42;;;14.27;;
35488;SDS011;21602;55.670;37.578;2023-02-01T09:56:07;24.13;;;13.32;;
35488;SDS011;21602;55.670;37.578;2023-02-01T09:58:44;20.60;;;11.93;;
35488;SDS011;21602;55.670;37.578;2023-02-01T10:01:21;25.10;;;14.13;;
35488;SDS011;21602;55.670;37.578;2023-02-01T10:03:49;23.63;;;12.70;;
35488;SDS011;21602;55.670;37.578;2023-02-01T10:06:20;25.77;;;14.90;;
35488;SDS011;21602;55.670;37.578;2023-02-01T10:09:20;26.75;;;14.30;;
35488;SDS011;21602;55.670;37.578;2023-02-01T10:26:45;25.27;;;14.32;;
35488;SDS011;21602;55.670;37.578;2023-02-01T10:29:29;22.90;;;14.27;;
35488;SDS011;21602;55.670;37.578;2023-02-01T10:32:01;22.70;;;13.65;;
35488;SDS011;21602;55.670;37.578;2023-02-01T10:34:30;25.42;;;13.70;;
35488;SDS011;21602;55.670;37.578;2023-02-01T10:37:00;23.95;;;13.63;;
35488;SDS011;21602;55.670;37.578;2023-02-01T10:39:35;26.20;;;14.57;;
35488;SDS011;21602;55.670;37.578;2023-02-01T10:42:02;23.67;;;13.30;;
35488;SDS011;21602;55.670;37.578;2023-02-01T10:44:30;27.95;;;14.05;;
35488;SDS011;21602;55.670;37.578;2023-02-01T10:46:59;27.45;;;14.38;;
35488;SDS011;21602;55.670;37.578;2023-02-01T10:49:49;24.73;;;14.40;;
35488;SDS011;21602;55.670;37.578;2023-02-01T10:52:33;23.80;;;12.93;;
35488;SDS011;21602;55.670;37.578;2023-02-01T10:57:58;24.15;;;13.63;;
35488;SDS011;21602;55.670;37.578;2023-02-01T11:00:26;20.75;;;12.73;;
35488;SDS011;21602;55.670;37.578;2023-02-01T11:02:53;24.92;;;13.57;;
35488;SDS011;21602;55.670;37.578;2023-02-01T11:05:20;22.10;;;13.20;;
35488;SDS011;21602;55.670;37.578;2023-02-01T11:07:53;22.83;;;13.73;;
35488;SDS011;21602;55.670;37.578;2023-02-01T11:10:34;21.27;;;12.27;;
35488;SDS011;21602;55.670;37.578;2023-02-01T11:13:02;20.17;;;12.38;;
35488;SDS011;21602;55.670;37.578;2023-02-01T11:15:29;21.38;;;13.05;;
35488;SDS011;21602;55.670;37.578;2023-02-01T11:17:55;23.77;;;12.50;;
35488;SDS011;21602;55.670;37.578;2023-02-01T11:20:40;22.67;;;12.52;;
35488;SDS011;21602;55.670;37.578;2023-02-01T11:23:16;22.63;;;12.02;;
35488;SDS011;21602;55.670;37.578;2023-02-01T11:25:49;18.67;;;12.50;;
35488;SDS011;21602;55.670;37.578;2023-02-01T11:28:15;19.52;;;11.35;;
35488;SDS011;21602;55.670;37.578;2023-02-01T11:30:43;22.15;;;12.02;;
35488;SDS011;21602;55.670;37.578;2023-02-01T11:33:15;19.20;;;11.60;;
35488;SDS011;21602;55.670;37.578;2023-02-01T11:35:44;23.67;;;13.07;;
35488;SDS011;21602;55.670;37.578;2023-02-01T11:38:19;22.20;;;13.40;;
35488;SDS011;21602;55.670;37.578;2023-02-01T11:40:48;18.48;;;11.85;;
35488;SDS011;21602;55.670;37.578;2023-02-01T11:43:22;23.92;;;13.23;;
35488;SDS011;21602;55.670;37.578;2023-02-01T11:45:54;24.35;;;12.98;;
35488;SDS011;21602;55.670;37.578;2023-02-01T11:48:26;25.20;;;13.68;;
35488;SDS011;21602;55.670;37.578;2023-02-01T11:54:23;20.80;;;12.43;;
35488;SDS011;21602;55.670;37.578;2023-02-01T11:56:36;21.52;;;11.68;;
35488;SDS011;21602;55.670;37.578;2023-02-01T12:02:30;22.65;;;12.05;;
35488;SDS011;21602;55.670;37.578;2023-02-01T12:13:14;20.25;;;12.55;;
35488;SDS011;21602;55.670;37.578;2023-02-01T12:19:25;16.95;;;10.50;;
35488;SDS011;21602;55.670;37.578;2023-02-01T12:33:16;17.63;;;11.23;;
35488;SDS011;21602;55.670;37.578;2023-02-01T12:43:45;16.27;;;11.05;;
35488;SDS011;21602;55.670;37.578;2023-02-01T12:46:21;17.38;;;10.43;;
35488;SDS011;21602;55.670;37.578;2023-02-01T12:48:58;16.95;;;10.18;;
35488;SDS011;21602;55.670;37.578;2023-02-01T12:51:29;19.20;;;10.40;;
35488;SDS011;21602;55.670;37.578;2023-02-01T12:56:44;18.33;;;10.40;;
35488;SDS011;21602;55.670;37.578;2023-02-01T12:59:17;20.42;;;11.02;;
35488;SDS011;21602;55.670;37.578;2023-02-01T13:01:54;15.90;;;9.80;;
35488;SDS011;21602;55.670;37.578;2023-02-01T13:04:28;16.50;;;9.98;;
35488;SDS011;21602;55.670;37.578;2023-02-01T13:14:58;15.98;;;9.75;;
35488;SDS011;21602;55.670;37.578;2023-02-01T13:17:45;15.88;;;8.13;;
35488;SDS011;21602;55.670;37.578;2023-02-01T13:22:54;16.60;;;9.50;;
35488;SDS011;21602;55.670;37.578;2023-02-01T13:28:00;14.30;;;9.27;;
35488;SDS011;21602;55.670;37.578;2023-02-01T13:30:44;11.73;;;7.45;;
35488;SDS011;21602;55.670;37.578;2023-02-01T13:41:55;13.70;;;7.65;;
35488;SDS011;21602;55.670;37.578;2023-02-01T13:44:25;11.07;;;6.90;;
35488;SDS011;21602;55.670;37.578;2023-02-01T13:46:56;10.45;;;6.95;;
35488;SDS011;21602;55.670;37.578;2023-02-01T13:49:26;11.60;;;7.13;;
35488;SDS011;21602;55.670;37.578;2023-02-01T13:51:57;13.65;;;7.35;;
35488;SDS011;21602;55.670;37.578;2023-02-01T13:54:25;12.05;;;7.30;;
35488;SDS011;21602;55.670;37.578;2023-02-01T13:57:02;11.80;;;7.13;;
35488;SDS011;21602;55.670;37.578;2023-02-01T14:05:09;10.40;;;7.07;;
35488;SDS011;21602;55.670;37.578;2023-02-01T14:23:58;12.25;;;7.70;;
35488;SDS011;21602;55.670;37.578;2023-02-01T14:26:46;13.38;;;7.95;;
35488;SDS011;21602;55.670;37.578;2023-02-01T14:34:25;12.15;;;7.25;;
35488;SDS011;21602;55.670;37.578;2023-02-01T14:36:58;16.90;;;8.30;;
35488;SDS011;21602;55.670;37.578;2023-02-01T15:00:58;13.60;;;8.30;;
35488;SDS011;21602;55.670;37.578;2023-02-01T15:03:32;14.40;;;9.13;;
35488;SDS011;21602;55.670;37.578;2023-02-01T15:08:56;14.18;;;7.68;;
35488;SDS011;21602;55.670;37.578;2023-02-01T15:11:24;13.02;;;6.80;;
35488;SDS011;21602;55.670;37.578;2023-02-01T15:13:51;13.50;;;7.57;;
35488;SDS011;21602;55.670;37.578;2023-02-01T15:16:20;12.55;;;6.57;;
35488;SDS011;21602;55.670;37.578;2023-02-01T15:18:48;12.90;;;7.45;;
35488;SDS011;21602;55.670;37.578;2023-02-01T15:21:16;14.40;;;7.82;;
35488;SDS011;21602;55.670;37.578;2023-02-01T15:23:47;12.80;;;7.07;;
35488;SDS011;21602;55.670;37.578;2023-02-01T15:26:25;12.48;;;7.32;;
35488;SDS011;21602;55.670;37.578;2023-02-01T15:28:56;15.50;;;9.27;;
35488;SDS011;21602;55.670;37.578;2023-02-01T15:31:37;13.30;;;8.15;;
35488;SDS011;21602;55.670;37.578;2023-02-01T15:34:08;16.13;;;8.88;;
35488;SDS011;21602;55.670;37.578;2023-02-01T15:36:34;18.65;;;9.52;;
35488;SDS011;21602;55.670;37.578;2023-02-01T15:41:55;18.27;;;9.82;;
35488;SDS011;21602;55.670;37.578;2023-02-01T15:46:55;17.75;;;10.07;;
35488;SDS011;21602;55.670;37.578;2023-02-01T15:49:31;18.15;;;9.70;;
35488;SDS011;21602;55.670;37.578;2023-02-01T15:52:03;19.00;;;10.50;;
35488;SDS011;21602;55.670;37.578;2023-02-01T15:54:43;17.83;;;10.25;;
35488;SDS011;21602;55.670;37.578;2023-02-01T15:57:26;18.55;;;9.65;;
35488;SDS011;21602;55.670;37.578;2023-02-01T16:00:05;20.58;;;10.50;;
35488;SDS011;21602;55.670;37.578;2023-02-01T16:02:43;19.55;;;9.48;;
35488;SDS011;21602;55.670;37.578;2023-02-01T16:05:33;18.90;;;11.27;;
35488;SDS011;21602;55.670;37.578;2023-02-01T16:10:39;21.20;;;10.10;;
35488;SDS011;21602;55.670;37.578;2023-02-01T16:13:07;17.38;;;10.27;;
35488;SDS011;21602;55.670;37.578;2023-02-01T16:15:34;16.38;;;10.25;;
35488;SDS011;21602;55.670;37.578;2023-02-01T16:17:59;17.95;;;9.75;;
35488;SDS011;21602;55.670;37.578;2023-02-01T16:20:25;17.30;;;9.98;;
35488;SDS011;21602;55.670;37.578;2023-02-01T16:22:51;16.13;;;9.93;;
35488;SDS011;21602;55.670;37.578;2023-02-01T16:25:17;20.30;;;10.20;;
35488;SDS011;21602;55.670;37.578;2023-02-01T16:27:43;16.58;;;9.60;;
35488;SDS011;21602;55.670;37.578;2023-02-01T16:30:09;18.02;;;10.50;;
35488;SDS011;21602;55.670;37.578;2023-02-01T16:32:37;18.35;;;10.02;;
35488;SDS011;21602;55.670;37.578;2023-02-01T16:35:17;15.52;;;8.88;;
35488;SDS011;21602;55.670;37.578;2023-02-01T16:37:53;20.10;;;9.93;;
35488;SDS011;21602;55.670;37.578;2023-02-01T16:40:25;18.23;;;10.40;;
35488;SDS011;21602;55.670;37.578;2023-02-01T16:42:51;17.52;;;9.68;;
35488;SDS011;21602;55.670;37.578;2023-02-01T16:45:20;17.38;;;10.48;;
35488;SDS011;21602;55.670;37.578;2023-02-01T16:47:50;17.42;;;9.93;;
35488;SDS011;21602;55.670;37.578;2023-02-01T16:50:23;15.88;;;9.52;;
35488;SDS011;21602;55.670;37.578;2023-02-01T16:52:51;18.02;;;9.75;;
35488;SDS011;21602;55.670;37.578;2023-02-01T16:55:21;15.38;;;9.13;;
35488;SDS011;21602;55.670;37.578;2023-02-01T16:57:50;17.20;;;9.85;;
35488;SDS011;21602;55.670;37.578;2023-02-01T17:00:16;16.27;;;9.88;;
35488;SDS011;21602;55.670;37.578;2023-02-01T17:02:43;14.55;;;8.80;;
35488;SDS011;21602;55.670;37.578;2023-02-01T17:05:11;16.15;;;8.77;;
35488;SDS011;21602;55.670;37.578;2023-02-01T17:07:37;13.90;;;6.72;;
35488;SDS011;21602;55.670;37.578;2023-02-01T17:10:08;12.60;;;7.10;;
35488;SDS011;21602;55.670;37.578;2023-02-01T17:12:50;10.65;;;6.43;;
35488;SDS011;21602;55.670;37.578;2023-02-01T17:15:16;10.25;;;6.03;;
35488;SDS011;21602;55.670;37.578;2023-02-01T17:17:42;10.73;;;5.75;;
35488;SDS011;21602;55.670;37.578;2023-02-01T17:20:21;11.55;;;6.65;;
35488;SDS011;21602;55.670;37.578;2023-02-01T17:22:49;11.98;;;7.07;;
35488;SDS011;21602;55.670;37.578;2023-02-01T17:25:16;13.40;;;7.97;;
35488;SDS011;21602;55.670;37.578;2023-02-01T17:27:44;13.02;;;7.13;;
35488;SDS011;21602;55.670;37.578;2023-02-01T17:30:13;10.70;;;6.72;;
35488;SDS011;21602;55.670;37.578;2023-02-01T17:32:51;11.88;;;7.40;;